Terminal Aerodrome Forecast
Issued by NWS

Home | Current Version | Previous Version | Text Only | Print | Product List | Glossary On
Versions: 1 2 3 4 5 6 7 8 9 10 11 12 13 14 15 16 17
000
FTUS44 KLZK 041700
TAFLLQ
TAF
KLLQ 041720Z 0418/0518 22007KT P6SM VCSH SCT015 BKN060
     FM042000 26007KT P6SM VCTS SCT050CB BKN100
     FM050100 VRB03KT P6SM SCT050 BKN100
     FM050800 VRB03KT P6SM SCT015 BKN050
      TEMPO 0510/0514 3SM BR BKN015
     FM051400 26006KT P6SM SCT050=

USA.gov is the U.S. government's official web portal to all federal, state and local government web resources and services.